createdAt,value
2023-05-12T00:01:17.064Z,0.60
2023-05-12T00:03:43.880Z,1.00
2023-05-12T00:06:11.468Z,1.00
2023-05-12T00:08:38.055Z,1.00
2023-05-12T00:11:04.531Z,1.00
2023-05-12T00:13:31.243Z,0.60
2023-05-12T00:15:59.376Z,1.00
2023-05-12T00:18:26.548Z,1.00
2023-05-12T00:20:54.713Z,1.00
2023-05-12T00:23:21.475Z,1.00
2023-05-12T00:25:48.236Z,1.00
2023-05-12T00:28:14.866Z,1.00
2023-05-12T00:30:41.437Z,2.00
2023-05-12T00:33:08.165Z,1.00
2023-05-12T00:35:34.686Z,3.00
2023-05-12T00:38:01.180Z,0.00
2023-05-12T00:40:27.636Z,2.00
2023-05-12T00:42:54.134Z,1.00
2023-05-12T00:45:22.853Z,1.00
2023-05-12T00:47:50.518Z,1.00
2023-05-12T00:50:17.572Z,0.00
2023-05-12T00:52:44.217Z,0.00
2023-05-12T00:55:10.787Z,1.00
2023-05-12T00:57:37.302Z,2.50
2023-05-12T01:00:05.115Z,1.00
2023-05-12T01:02:31.774Z,0.40
2023-05-12T01:04:58.302Z,1.00
2023-05-12T01:07:25.640Z,0.40
2023-05-12T01:09:55.925Z,1.00
2023-05-12T01:12:26.017Z,0.00
2023-05-12T01:14:53.674Z,0.00
2023-05-12T01:17:22.252Z,0.40
2023-05-12T01:19:50.436Z,1.00
2023-05-12T01:22:17.715Z,1.00
2023-05-12T01:24:50.654Z,1.00
2023-05-12T01:27:17.976Z,1.00
2023-05-12T01:29:47.808Z,0.20
2023-05-12T01:32:15.134Z,1.00
2023-05-12T01:34:42.789Z,0.00
2023-05-12T01:37:09.818Z,2.60
2023-05-12T01:39:36.701Z,0.00
2023-05-12T01:42:03.775Z,1.00
2023-05-12T01:44:30.317Z,1.00
2023-05-12T01:46:56.816Z,0.00
2023-05-12T01:49:23.392Z,0.00
2023-05-12T01:51:49.877Z,1.00
2023-05-12T01:54:16.418Z,0.00
2023-05-12T01:56:42.911Z,0.00
2023-05-12T01:59:09.477Z,0.00
2023-05-12T02:01:37.165Z,0.75
2023-05-12T02:04:04.732Z,0.00
2023-05-12T02:06:31.699Z,0.00
2023-05-12T02:08:58.789Z,1.00
2023-05-12T02:11:25.998Z,0.00
2023-05-12T02:13:52.549Z,1.00
2023-05-12T02:16:19.198Z,1.00
2023-05-12T02:18:45.828Z,1.00
2023-05-12T02:21:12.357Z,0.00
2023-05-12T02:23:38.794Z,0.00
2023-05-12T02:26:05.273Z,1.00
2023-05-12T02:28:31.940Z,1.00
2023-05-12T02:30:58.532Z,2.40
2023-05-12T02:33:25.117Z,1.00
2023-05-12T02:35:51.612Z,0.00
2023-05-12T02:38:18.249Z,1.40
2023-05-12T02:40:44.794Z,3.00
2023-05-12T02:43:11.262Z,1.00
2023-05-12T02:45:37.727Z,1.75
2023-05-12T02:48:04.474Z,1.00
2023-05-12T02:50:31.021Z,1.00
2023-05-12T02:52:57.484Z,1.00
2023-05-12T02:55:24.031Z,0.75
2023-05-12T02:57:50.538Z,1.60
2023-05-12T03:00:17.232Z,0.00
2023-05-12T03:02:43.786Z,0.00
2023-05-12T03:05:10.426Z,1.00
2023-05-12T03:07:37.058Z,1.00
2023-05-12T03:10:04.038Z,0.00
2023-05-12T03:12:30.574Z,0.40
2023-05-12T03:14:57.167Z,0.00
2023-05-12T03:17:23.697Z,3.80
2023-05-12T03:19:50.225Z,1.00
2023-05-12T03:22:16.970Z,1.00
2023-05-12T03:24:43.450Z,1.00
2023-05-12T03:27:09.937Z,1.00
2023-05-12T03:29:36.815Z,1.00
2023-05-12T03:32:03.283Z,1.00
2023-05-12T03:34:29.818Z,0.00
2023-05-12T03:36:56.248Z,0.60
2023-05-12T03:39:24.935Z,0.50
2023-05-12T03:41:51.525Z,0.25
2023-05-12T03:44:18.786Z,0.00
2023-05-12T03:46:45.328Z,1.00
2023-05-12T03:49:12.108Z,1.00
2023-05-12T03:51:38.724Z,1.50
2023-05-12T03:54:05.384Z,1.00
2023-05-12T03:56:31.990Z,0.50
2023-05-12T03:58:58.580Z,1.00
2023-05-12T04:01:25.034Z,1.00
2023-05-12T04:03:51.582Z,1.00
2023-05-12T04:06:18.140Z,1.00
2023-05-12T04:08:44.649Z,0.20
2023-05-12T04:11:11.109Z,2.75
2023-05-12T04:13:37.641Z,0.00
2023-05-12T04:16:04.365Z,1.00
2023-05-12T04:18:31.013Z,2.00
2023-05-12T04:20:57.605Z,2.00
2023-05-12T04:23:24.106Z,0.00
2023-05-12T04:25:50.615Z,0.20
2023-05-12T04:28:17.116Z,1.00
2023-05-12T04:30:43.653Z,1.00
2023-05-12T04:33:10.310Z,0.60
2023-05-12T04:35:37.001Z,0.75
2023-05-12T04:38:03.836Z,0.25
2023-05-12T04:40:32.697Z,2.00
2023-05-12T04:43:00.684Z,3.00
2023-05-12T04:45:27.220Z,1.00
2023-05-12T04:47:53.728Z,1.00
2023-05-12T04:50:22.421Z,0.00
2023-05-12T04:52:48.869Z,2.00
2023-05-12T04:55:15.340Z,1.20
2023-05-12T04:57:41.859Z,1.25
2023-05-12T05:00:09.265Z,0.60
2023-05-12T05:02:35.981Z,1.00
2023-05-12T05:05:02.690Z,0.20
2023-05-12T05:07:29.163Z,0.50
2023-05-12T05:09:55.599Z,1.00
2023-05-12T05:12:22.078Z,0.80
2023-05-12T05:14:48.568Z,2.00
2023-05-12T05:17:15.100Z,1.50
2023-05-12T05:19:55.067Z,2.00
2023-05-12T05:22:24.734Z,1.00
2023-05-12T05:24:51.956Z,1.00
2023-05-12T05:27:18.779Z,0.00
2023-05-12T05:29:45.310Z,1.20
2023-05-12T05:32:11.961Z,1.00
2023-05-12T05:34:38.434Z,0.80
2023-05-12T05:37:14.194Z,2.00
2023-05-12T05:39:40.756Z,2.00
2023-05-12T05:42:07.268Z,0.50
2023-05-12T05:44:33.734Z,4.00
2023-05-12T05:47:00.385Z,1.80
2023-05-12T05:49:26.978Z,1.00
2023-05-12T05:51:53.455Z,2.50
2023-05-12T05:54:19.935Z,1.00
2023-05-12T05:56:46.392Z,0.00
2023-05-12T05:59:14.448Z,5.00
2023-05-12T06:01:41.080Z,1.00
2023-05-12T06:04:07.588Z,0.60
2023-05-12T06:06:34.191Z,1.00
2023-05-12T06:09:00.768Z,2.00
2023-05-12T06:11:27.333Z,1.40
2023-05-12T06:13:53.796Z,3.00
2023-05-12T06:16:20.478Z,1.00
2023-05-12T06:18:47.008Z,0.00
2023-05-12T06:21:13.576Z,1.00
2023-05-12T06:23:40.002Z,1.00
2023-05-12T06:26:07.913Z,0.60
2023-05-12T06:28:34.475Z,2.00
2023-05-12T06:31:00.982Z,0.40
2023-05-12T06:33:27.423Z,2.20
2023-05-12T06:35:53.884Z,1.00
2023-05-12T06:38:20.371Z,0.00
2023-05-12T06:40:46.831Z,1.00
2023-05-12T06:43:13.501Z,4.00
2023-05-12T06:45:40.005Z,1.00
2023-05-12T06:48:06.527Z,1.60
2023-05-12T06:50:33.012Z,1.00
2023-05-12T06:52:59.449Z,2.00
2023-05-12T06:55:26.085Z,1.00
2023-05-12T06:57:55.927Z,3.00
2023-05-12T07:00:23.347Z,2.00
2023-05-12T07:02:49.822Z,0.60
2023-05-12T07:05:16.684Z,2.20
2023-05-12T07:07:43.243Z,0.60
2023-05-12T07:10:09.929Z,2.25
2023-05-12T07:12:37.315Z,2.00
2023-05-12T07:15:04.629Z,0.20
2023-05-12T07:17:31.231Z,0.50
2023-05-12T07:19:57.790Z,0.00
2023-05-12T07:22:24.261Z,2.00
2023-05-12T07:24:50.775Z,1.00
2023-05-12T07:27:17.793Z,0.50
2023-05-12T07:29:44.943Z,3.75
2023-05-12T07:32:11.690Z,1.00
2023-05-12T07:34:38.783Z,1.00
2023-05-12T07:37:06.520Z,3.00
2023-05-12T07:39:33.057Z,2.75
2023-05-12T07:41:59.541Z,1.20
2023-05-12T07:44:26.438Z,2.00
2023-05-12T07:46:53.007Z,1.50
2023-05-12T07:49:21.656Z,4.00
2023-05-12T07:51:48.165Z,2.00
2023-05-12T07:54:14.665Z,1.25
2023-05-12T07:56:41.151Z,4.80
2023-05-12T07:59:08.710Z,4.00
2023-05-12T08:01:35.188Z,2.80
2023-05-12T08:04:01.840Z,1.40
2023-05-12T08:06:28.357Z,2.60
2023-05-12T08:08:58.099Z,5.00
2023-05-12T08:11:27.466Z,1.00
2023-05-12T08:13:54.136Z,1.00
2023-05-12T08:16:20.735Z,2.00
2023-05-12T08:18:47.303Z,3.00
2023-05-12T08:21:13.856Z,1.80
2023-05-12T08:23:40.406Z,2.00
2023-05-12T08:26:06.878Z,2.00
2023-05-12T08:28:33.337Z,2.00
2023-05-12T08:31:01.466Z,1.00
2023-05-12T08:33:29.322Z,3.00
2023-05-12T08:35:55.805Z,2.00
2023-05-12T08:38:22.350Z,3.00
2023-05-12T08:41:21.938Z,4.00
2023-05-12T08:43:52.131Z,3.00
2023-05-12T08:46:19.034Z,1.00
2023-05-12T08:48:47.001Z,3.40
2023-05-12T08:51:14.214Z,1.60
2023-05-12T08:53:41.767Z,1.60
2023-05-12T08:58:41.982Z,6.00
2023-05-12T09:01:11.101Z,2.00
2023-05-12T09:03:37.671Z,2.50
2023-05-12T09:06:05.705Z,2.40
2023-05-12T09:08:33.798Z,3.00
2023-05-12T09:11:00.911Z,3.00
2023-05-12T09:13:36.501Z,4.00
2023-05-12T09:16:04.369Z,5.00
2023-05-12T09:18:51.646Z,4.00
2023-05-12T09:21:18.672Z,2.00
2023-05-12T09:23:54.878Z,4.60
2023-05-12T09:26:22.874Z,5.00
2023-05-12T09:28:49.804Z,5.00
2023-05-12T09:31:16.284Z,3.50
2023-05-12T09:33:44.495Z,4.00
2023-05-12T09:36:11.246Z,6.00
2023-05-12T09:38:37.706Z,4.00
2023-05-12T09:41:04.196Z,2.00
2023-05-12T09:43:30.765Z,4.00
2023-05-12T09:45:57.294Z,6.00
2023-05-12T09:48:26.107Z,1.60
2023-05-12T09:50:53.964Z,3.00
2023-05-12T09:53:22.902Z,2.00
2023-05-12T09:55:49.689Z,3.40
2023-05-12T09:58:17.327Z,2.00
2023-05-12T10:01:12.603Z,3.60
2023-05-12T10:03:31.857Z,2.60
2023-05-12T10:06:01.554Z,4.00
2023-05-12T10:08:32.241Z,4.60
2023-05-12T10:10:59.749Z,3.00
2023-05-12T10:13:27.704Z,1.25
2023-05-12T10:15:57.728Z,0.75
2023-05-12T10:18:24.999Z,2.50
2023-05-12T10:20:52.074Z,2.80
2023-05-12T10:23:18.855Z,1.00
2023-05-12T10:25:45.651Z,0.40
2023-05-12T10:28:12.853Z,4.00
2023-05-12T10:30:40.164Z,2.60
2023-05-12T10:33:09.201Z,4.25
2023-05-12T10:35:36.611Z,1.50
2023-05-12T10:38:09.894Z,2.60
2023-05-12T10:40:36.381Z,3.50
2023-05-12T10:43:03.291Z,2.00
2023-05-12T10:45:35.364Z,2.00
2023-05-12T10:48:07.048Z,2.00
2023-05-12T10:50:33.807Z,2.00
2023-05-12T10:53:00.446Z,0.60
2023-05-12T10:55:34.151Z,3.00
2023-05-12T10:58:05.151Z,2.00
2023-05-12T11:00:33.032Z,3.00
2023-05-12T11:03:06.603Z,2.00
2023-05-12T11:05:36.403Z,1.00
2023-05-12T11:08:04.432Z,4.00
2023-05-12T11:10:31.467Z,1.00
2023-05-12T11:12:58.798Z,3.00
2023-05-12T11:15:25.455Z,2.00
2023-05-12T11:17:52.540Z,2.00
2023-05-12T11:20:23.099Z,3.00
2023-05-12T11:22:49.827Z,2.00
2023-05-12T11:25:16.662Z,2.60
2023-05-12T11:27:47.752Z,1.25
2023-05-12T11:30:14.698Z,2.40
2023-05-12T11:32:41.462Z,1.00
2023-05-12T11:35:17.187Z,4.00
2023-05-12T11:37:44.500Z,2.25
2023-05-12T11:40:13.952Z,3.00
2023-05-12T11:42:41.404Z,2.00
2023-05-12T11:45:18.863Z,2.40
2023-05-12T11:47:45.732Z,3.00
2023-05-12T11:50:12.408Z,3.00
2023-05-12T11:52:39.501Z,2.40
2023-05-12T11:55:06.393Z,2.25
2023-05-12T11:57:33.949Z,1.00
2023-05-12T12:00:01.832Z,4.00
2023-05-12T12:02:28.714Z,4.60
2023-05-12T12:04:55.576Z,5.00
2023-05-12T12:07:32.636Z,2.80
2023-05-12T12:09:59.250Z,0.60
2023-05-12T12:12:25.909Z,1.00
2023-05-12T12:14:52.498Z,2.00
2023-05-12T12:17:18.946Z,3.60
2023-05-12T12:19:47.856Z,1.00
2023-05-12T12:22:14.388Z,3.60
2023-05-12T12:24:43.815Z,2.00
2023-05-12T12:27:10.374Z,2.60
2023-05-12T12:29:36.852Z,1.60
2023-05-12T12:32:03.385Z,0.50
2023-05-12T12:34:29.831Z,1.25
2023-05-12T12:36:58.107Z,1.00
2023-05-12T12:39:24.629Z,3.00
2023-05-12T12:41:51.086Z,2.00
2023-05-12T12:44:17.885Z,2.00
2023-05-12T12:46:44.432Z,1.00
2023-05-12T12:49:11.380Z,1.00
2023-05-12T12:51:45.495Z,0.80
2023-05-12T12:54:13.901Z,2.60
2023-05-12T12:56:40.425Z,1.00
2023-05-12T12:59:06.857Z,1.20
2023-05-12T13:01:34.062Z,4.50
2023-05-12T13:04:00.663Z,3.00
2023-05-12T13:06:27.738Z,4.40
2023-05-12T13:08:54.235Z,0.00
2023-05-12T13:11:20.755Z,1.00
2023-05-12T13:13:47.348Z,1.00
2023-05-12T13:16:14.008Z,1.50
2023-05-12T13:18:43.133Z,2.00
2023-05-12T13:21:09.653Z,2.00
2023-05-12T13:23:36.135Z,0.00
2023-05-12T13:26:02.644Z,1.00
2023-05-12T13:28:29.113Z,2.00
2023-05-12T13:30:55.694Z,1.00
2023-05-12T13:33:22.260Z,1.00
2023-05-12T13:35:48.708Z,1.00
2023-05-12T13:38:15.261Z,0.00
2023-05-12T13:40:44.484Z,0.00
2023-05-12T13:43:11.195Z,0.00
2023-05-12T13:45:37.743Z,0.00
2023-05-12T13:48:04.369Z,2.00
2023-05-12T13:50:33.328Z,0.25
2023-05-12T13:53:00.107Z,1.00
2023-05-12T13:55:26.665Z,1.40
2023-05-12T13:57:53.391Z,0.00
2023-05-12T14:00:20.543Z,1.00
2023-05-12T14:02:47.174Z,0.40
2023-05-12T14:05:13.822Z,0.80
2023-05-12T14:07:40.904Z,0.50
2023-05-12T14:10:07.543Z,1.00
2023-05-12T14:12:34.287Z,4.00
2023-05-12T14:15:15.839Z,1.00
2023-05-12T14:17:47.948Z,2.80
2023-05-12T14:20:14.535Z,2.00
2023-05-12T14:22:41.964Z,7.75
2023-05-12T14:25:08.729Z,3.75
2023-05-12T14:27:35.321Z,3.00
2023-05-12T14:30:01.968Z,3.00
2023-05-12T14:32:28.515Z,2.00
2023-05-12T14:34:55.000Z,2.00
2023-05-12T14:37:21.568Z,4.25
2023-05-12T14:39:48.126Z,7.60
2023-05-12T14:42:14.615Z,5.00
2023-05-12T14:44:41.071Z,2.00
2023-05-12T14:47:09.075Z,4.00
2023-05-12T14:49:35.818Z,1.25
2023-05-12T14:52:02.860Z,3.25
2023-05-12T14:54:29.413Z,3.50
2023-05-12T14:56:56.672Z,1.25
2023-05-12T14:59:23.235Z,1.00
2023-05-12T15:01:49.888Z,0.50
2023-05-12T15:04:16.519Z,0.60
2023-05-12T15:06:43.033Z,2.00
2023-05-12T15:09:09.779Z,1.00
2023-05-12T15:11:37.004Z,1.00
2023-05-12T15:14:04.816Z,0.00
2023-05-12T15:16:32.898Z,2.00
2023-05-12T15:18:59.453Z,0.00
2023-05-12T15:21:26.114Z,1.60
2023-05-12T15:23:52.660Z,1.00
2023-05-12T15:26:32.000Z,1.00
2023-05-12T15:29:00.559Z,2.20
2023-05-12T15:31:28.653Z,1.00
2023-05-12T15:33:56.086Z,4.20
2023-05-12T15:36:22.723Z,2.25
2023-05-12T15:38:49.204Z,2.00
2023-05-12T15:41:15.697Z,2.00
2023-05-12T15:43:42.493Z,2.00
2023-05-12T15:46:10.862Z,2.40
2023-05-12T15:48:37.593Z,0.33
2023-05-12T15:51:04.247Z,0.20
2023-05-12T15:53:31.067Z,2.60
2023-05-12T15:56:04.393Z,0.00
2023-05-12T15:58:31.434Z,0.00
2023-05-12T16:00:58.053Z,1.80
2023-05-12T16:03:24.730Z,1.00
2023-05-12T16:05:51.319Z,2.50
2023-05-12T16:08:18.083Z,0.50
2023-05-12T16:10:44.868Z,3.50
2023-05-12T16:13:11.407Z,1.00
2023-05-12T16:15:37.898Z,1.00
2023-05-12T16:18:06.424Z,6.60
2023-05-12T16:20:34.248Z,1.00
2023-05-12T16:23:01.097Z,0.75
2023-05-12T16:25:27.576Z,1.00
2023-05-12T16:27:53.996Z,1.00
2023-05-12T16:30:20.992Z,0.00
2023-05-12T16:32:47.605Z,2.00
2023-05-12T16:35:14.214Z,3.20
2023-05-12T16:37:40.679Z,3.00
2023-05-12T16:40:07.628Z,1.00
2023-05-12T16:42:34.145Z,1.60
2023-05-12T16:45:00.716Z,0.00
2023-05-12T16:47:30.208Z,1.00
2023-05-12T16:49:58.293Z,0.60
2023-05-12T16:52:25.360Z,0.50
2023-05-12T16:54:51.909Z,0.00
2023-05-12T16:57:18.797Z,0.25
2023-05-12T16:59:45.473Z,0.00
2023-05-12T17:02:12.089Z,0.00
2023-05-12T17:04:39.004Z,1.00
2023-05-12T17:07:05.884Z,1.00
2023-05-12T17:09:32.390Z,2.00
2023-05-12T17:11:58.933Z,0.60
2023-05-12T17:14:25.361Z,1.00
2023-05-12T17:16:52.453Z,2.00
2023-05-12T17:19:19.056Z,1.60
2023-05-12T17:21:45.488Z,1.00
2023-05-12T17:24:12.008Z,1.60
2023-05-12T17:26:38.473Z,1.00
2023-05-12T17:29:04.967Z,3.60
2023-05-12T17:31:31.550Z,1.00
2023-05-12T17:33:58.312Z,1.80
2023-05-12T17:36:24.878Z,0.00
2023-05-12T17:38:53.961Z,1.50
2023-05-12T17:41:20.729Z,0.00
2023-05-12T17:43:47.273Z,0.00
2023-05-12T17:46:13.744Z,3.00
2023-05-12T17:48:40.401Z,3.00
2023-05-12T17:51:07.251Z,3.00
2023-05-12T17:53:33.824Z,1.00
2023-05-12T17:56:00.563Z,0.60
2023-05-12T17:58:27.480Z,2.50
2023-05-12T18:00:54.027Z,3.00
2023-05-12T18:03:23.769Z,1.50
2023-05-12T18:05:51.127Z,2.00
2023-05-12T18:08:17.997Z,2.00
2023-05-12T18:10:44.936Z,2.00
2023-05-12T18:13:11.597Z,2.00
2023-05-12T18:15:38.437Z,2.00
2023-05-12T18:18:05.147Z,0.40
2023-05-12T18:20:31.619Z,2.00
2023-05-12T18:22:58.084Z,1.60
2023-05-12T18:25:24.623Z,2.00
2023-05-12T18:27:52.196Z,2.00
2023-05-12T18:30:18.803Z,3.75
2023-05-12T18:32:45.429Z,2.00
2023-05-12T18:35:12.385Z,2.00
2023-05-12T18:37:38.947Z,2.00
2023-05-12T18:40:06.984Z,2.40
2023-05-12T18:42:34.417Z,3.00
2023-05-12T18:45:00.912Z,3.00
2023-05-12T18:47:27.458Z,2.00
2023-05-12T18:49:54.055Z,4.00
2023-05-12T18:52:21.399Z,5.00
2023-05-12T18:54:49.710Z,4.00
2023-05-12T18:57:16.588Z,2.00
2023-05-12T18:59:43.234Z,2.00
2023-05-12T19:02:09.856Z,3.00
2023-05-12T19:04:36.656Z,2.00
2023-05-12T19:07:03.968Z,1.75
2023-05-12T19:09:30.634Z,3.00
2023-05-12T19:11:57.313Z,2.00
2023-05-12T19:14:23.935Z,2.80
2023-05-12T19:16:50.493Z,3.00
2023-05-12T19:19:17.417Z,2.75
2023-05-12T19:21:44.038Z,6.00
2023-05-12T19:24:12.577Z,3.00
2023-05-12T19:26:39.087Z,7.00
2023-05-12T19:29:05.940Z,3.60
2023-05-12T19:31:34.198Z,4.00
2023-05-12T19:34:00.681Z,2.75
2023-05-12T19:36:28.920Z,5.00
2023-05-12T19:38:59.511Z,5.00
2023-05-12T19:41:29.439Z,4.00
2023-05-12T19:43:56.111Z,1.00
2023-05-12T19:46:22.778Z,2.50
2023-05-12T19:48:49.420Z,2.20
2023-05-12T19:51:15.848Z,2.00
2023-05-12T19:53:43.734Z,4.80
2023-05-12T19:56:10.226Z,3.00
2023-05-12T19:58:36.705Z,2.00
2023-05-12T20:01:03.273Z,4.00
2023-05-12T20:03:29.842Z,2.60
2023-05-12T20:05:56.364Z,2.00
2023-05-12T20:08:22.832Z,3.00
2023-05-12T20:10:49.259Z,1.00
2023-05-12T20:13:15.806Z,3.00
2023-05-12T20:15:44.107Z,2.40
2023-05-12T20:18:12.784Z,3.00
2023-05-12T20:20:39.247Z,1.00
2023-05-12T20:23:05.739Z,3.25
2023-05-12T20:25:33.257Z,4.00
2023-05-12T20:27:59.837Z,3.40
2023-05-12T20:30:26.890Z,1.75
2023-05-12T20:32:53.471Z,2.25
2023-05-12T20:35:20.720Z,2.00
2023-05-12T20:37:47.521Z,2.00
2023-05-12T20:40:14.068Z,1.00
2023-05-12T20:42:40.617Z,1.25
2023-05-12T20:45:07.582Z,1.20
2023-05-12T20:47:34.997Z,1.00
2023-05-12T20:50:05.603Z,2.50
2023-05-12T20:52:38.935Z,1.00
2023-05-12T20:55:05.754Z,3.00
2023-05-12T20:57:32.252Z,1.00
2023-05-12T20:59:59.060Z,1.00
2023-05-12T21:02:26.946Z,3.00
2023-05-12T21:04:53.857Z,2.60
2023-05-12T21:07:20.875Z,2.50
2023-05-12T21:09:47.932Z,1.00
2023-05-12T21:12:14.514Z,0.00
2023-05-12T21:14:42.082Z,1.50
2023-05-12T21:17:09.218Z,1.40
2023-05-12T21:19:36.535Z,2.00
2023-05-12T21:22:03.695Z,1.80
2023-05-12T21:24:30.357Z,3.00
2023-05-12T21:26:56.897Z,2.20
2023-05-12T21:29:23.438Z,3.00
2023-05-12T21:31:50.088Z,3.00
2023-05-12T21:34:16.685Z,3.00
2023-05-12T21:36:43.270Z,2.40
2023-05-12T21:39:09.895Z,3.00
2023-05-12T21:41:38.476Z,2.60
2023-05-12T21:44:06.205Z,2.50
2023-05-12T21:46:33.501Z,2.40
2023-05-12T21:49:00.060Z,3.75
2023-05-12T21:51:26.537Z,4.00
2023-05-12T21:53:54.669Z,8.00
2023-05-12T21:56:24.278Z,5.00
2023-05-12T21:58:50.789Z,5.40
2023-05-12T22:01:17.721Z,6.00
2023-05-12T22:03:44.419Z,5.00
2023-05-12T22:06:11.890Z,2.40
2023-05-12T22:08:38.602Z,4.00
2023-05-12T22:11:05.109Z,3.60
2023-05-12T22:13:31.649Z,4.75
2023-05-12T22:15:58.418Z,4.60
2023-05-12T22:18:25.029Z,5.00
2023-05-12T22:20:51.578Z,5.00
2023-05-12T22:23:18.109Z,7.00
2023-05-12T22:25:44.595Z,6.50
2023-05-12T22:28:11.132Z,5.40
2023-05-12T22:30:37.630Z,3.80
2023-05-12T22:33:04.194Z,6.00
2023-05-12T22:35:30.692Z,7.00
2023-05-12T22:37:57.148Z,4.40
2023-05-12T22:40:23.707Z,6.50
2023-05-12T22:42:50.153Z,5.60
2023-05-12T22:45:16.595Z,7.00
2023-05-12T22:47:43.163Z,5.60
2023-05-12T22:50:10.410Z,6.80
2023-05-12T22:52:36.920Z,8.00
2023-05-12T22:55:03.440Z,5.00
2023-05-12T22:57:30.025Z,6.00
2023-05-12T22:59:56.498Z,6.00
2023-05-12T23:02:23.006Z,7.00
2023-05-12T23:04:49.532Z,5.60
2023-05-12T23:07:16.034Z,5.80
2023-05-12T23:09:42.540Z,5.00
2023-05-12T23:12:09.131Z,4.75
2023-05-12T23:14:35.652Z,4.00
2023-05-12T23:17:02.280Z,5.50
2023-05-12T23:19:28.764Z,4.60
2023-05-12T23:21:55.238Z,7.20
2023-05-12T23:24:21.760Z,5.40
2023-05-12T23:26:48.317Z,7.00
2023-05-12T23:29:14.808Z,7.50
2023-05-12T23:31:41.261Z,7.00
2023-05-12T23:34:07.710Z,7.20
2023-05-12T23:36:34.227Z,8.00
2023-05-12T23:39:00.746Z,8.20
2023-05-12T23:41:31.471Z,6.20
2023-05-12T23:43:58.340Z,8.75
2023-05-12T23:46:24.960Z,8.00
2023-05-12T23:48:52.460Z,7.50
2023-05-12T23:51:19.030Z,7.50
2023-05-12T23:53:45.593Z,12.00
2023-05-12T23:56:12.086Z,8.00
2023-05-12T23:58:38.524Z,7.75
